Terminal Aerodrome Forecast
Issued by NWS

Home | Current Version | Previous Version | Text Only | Print | Product List | Glossary On
Versions: 1 2 3 4 5 6 7 8 9 10 11 12 13 14 15 16 17 18 19 20
000
FTUS43 KDMX 161137
TAFOTM
TAF
KOTM 161137Z 1612/1712 10006KT 6SM BR SKC
     FM161500 15009KT P6SM BKN060
     FM162100 16010KT P6SM SHRA VCTS BKN090CB
     FM170400 20008KT P6SM BKN110
     FM170800 25010G16KT P6SM BKN015=

USA.gov is the U.S. government's official web portal to all federal, state and local government web resources and services.